sensor_id;sensor_type;location;lat;lon;timestamp;temperature;humidity
18721;DHT22;9489;50.948;3.114;2022-10-26T00:02:18;14.60;99.90
18721;DHT22;9489;50.948;3.114;2022-10-26T00:04:44;14.50;99.90
18721;DHT22;9489;50.948;3.114;2022-10-26T00:07:09;14.50;99.90
18721;DHT22;9489;50.948;3.114;2022-10-26T00:09:35;14.50;99.90
18721;DHT22;9489;50.948;3.114;2022-10-26T00:12:01;14.50;99.90
18721;DHT22;9489;50.948;3.114;2022-10-26T00:14:27;14.50;99.90
18721;DHT22;9489;50.948;3.114;2022-10-26T00:16:53;14.50;99.90
18721;DHT22;9489;50.948;3.114;2022-10-26T00:19:19;14.50;99.90
18721;DHT22;9489;50.948;3.114;2022-10-26T00:21:45;14.50;99.90
18721;DHT22;9489;50.948;3.114;2022-10-26T00:24:11;14.50;99.90
18721;DHT22;9489;50.948;3.114;2022-10-26T00:26:37;14.50;99.90
18721;DHT22;9489;50.948;3.114;2022-10-26T00:29:03;14.50;99.90
18721;DHT22;9489;50.948;3.114;2022-10-26T00:31:29;14.50;99.90
18721;DHT22;9489;50.948;3.114;2022-10-26T00:33:55;14.50;99.90
18721;DHT22;9489;50.948;3.114;2022-10-26T00:36:22;14.60;99.90
18721;DHT22;9489;50.948;3.114;2022-10-26T00:38:49;14.60;99.90
18721;DHT22;9489;50.948;3.114;2022-10-26T00:41:17;14.60;99.90
18721;DHT22;9489;50.948;3.114;2022-10-26T00:43:43;14.60;99.90
18721;DHT22;9489;50.948;3.114;2022-10-26T00:46:12;14.60;99.90
18721;DHT22;9489;50.948;3.114;2022-10-26T00:48:46;14.60;99.90
18721;DHT22;9489;50.948;3.114;2022-10-26T00:51:22;14.70;99.90
18721;DHT22;9489;50.948;3.114;2022-10-26T00:53:50;14.70;99.90
18721;DHT22;9489;50.948;3.114;2022-10-26T00:56:16;14.70;99.90
18721;DHT22;9489;50.948;3.114;2022-10-26T00:58:43;14.80;99.90
18721;DHT22;9489;50.948;3.114;2022-10-26T01:01:09;14.80;99.90
18721;DHT22;9489;50.948;3.114;2022-10-26T01:03:35;14.80;99.90
18721;DHT22;9489;50.948;3.114;2022-10-26T01:06:02;14.80;99.90
18721;DHT22;9489;50.948;3.114;2022-10-26T01:08:29;14.80;99.90
18721;DHT22;9489;50.948;3.114;2022-10-26T01:10:57;14.80;99.90
18721;DHT22;9489;50.948;3.114;2022-10-26T01:13:24;14.90;99.90
18721;DHT22;9489;50.948;3.114;2022-10-26T01:21:33;14.90;99.90
18721;DHT22;9489;50.948;3.114;2022-10-26T01:27:39;14.90;99.90
18721;DHT22;9489;50.948;3.114;2022-10-26T01:36:18;14.90;99.90
18721;DHT22;9489;50.948;3.114;2022-10-26T01:38:59;14.90;99.90
18721;DHT22;9489;50.948;3.114;2022-10-26T01:46:33;15.00;99.90
18721;DHT22;9489;50.948;3.114;2022-10-26T01:49:04;15.00;99.90
18721;DHT22;9489;50.948;3.114;2022-10-26T01:51:31;15.00;99.90
18721;DHT22;9489;50.948;3.114;2022-10-26T01:53:57;15.00;99.90
18721;DHT22;9489;50.948;3.114;2022-10-26T01:56:26;15.00;99.90
18721;DHT22;9489;50.948;3.114;2022-10-26T02:12:49;15.00;99.90
18721;DHT22;9489;50.948;3.114;2022-10-26T02:15:24;15.00;99.90
18721;DHT22;9489;50.948;3.114;2022-10-26T02:17:59;15.00;99.90
18721;DHT22;9489;50.948;3.114;2022-10-26T02:20:32;15.00;99.90
18721;DHT22;9489;50.948;3.114;2022-10-26T02:23:02;15.10;99.90
18721;DHT22;9489;50.948;3.114;2022-10-26T02:25:31;15.10;99.90
18721;DHT22;9489;50.948;3.114;2022-10-26T02:28:03;15.10;99.90
18721;DHT22;9489;50.948;3.114;2022-10-26T02:30:31;15.10;99.90
18721;DHT22;9489;50.948;3.114;2022-10-26T02:32:58;15.10;99.90
18721;DHT22;9489;50.948;3.114;2022-10-26T02:35:30;15.10;99.90
18721;DHT22;9489;50.948;3.114;2022-10-26T02:37:58;15.10;99.90
18721;DHT22;9489;50.948;3.114;2022-10-26T02:40:26;15.10;99.90
18721;DHT22;9489;50.948;3.114;2022-10-26T02:42:56;15.10;99.90
18721;DHT22;9489;50.948;3.114;2022-10-26T02:45:26;15.10;99.90
18721;DHT22;9489;50.948;3.114;2022-10-26T02:47:53;15.20;99.90
18721;DHT22;9489;50.948;3.114;2022-10-26T02:50:23;15.20;99.90
18721;DHT22;9489;50.948;3.114;2022-10-26T02:53:23;15.20;99.90
18721;DHT22;9489;50.948;3.114;2022-10-26T02:55:52;15.20;99.90
18721;DHT22;9489;50.948;3.114;2022-10-26T02:58:27;15.20;99.90
18721;DHT22;9489;50.948;3.114;2022-10-26T03:00:54;15.20;99.90
18721;DHT22;9489;50.948;3.114;2022-10-26T03:03:20;15.20;99.90
18721;DHT22;9489;50.948;3.114;2022-10-26T03:05:46;15.20;99.90
18721;DHT22;9489;50.948;3.114;2022-10-26T03:08:12;15.20;99.90
18721;DHT22;9489;50.948;3.114;2022-10-26T03:10:43;15.30;99.90
18721;DHT22;9489;50.948;3.114;2022-10-26T03:13:10;15.30;99.90
18721;DHT22;9489;50.948;3.114;2022-10-26T03:15:36;15.30;99.90
18721;DHT22;9489;50.948;3.114;2022-10-26T03:18:02;15.30;99.90
18721;DHT22;9489;50.948;3.114;2022-10-26T03:20:28;15.30;99.90
18721;DHT22;9489;50.948;3.114;2022-10-26T03:22:53;15.30;99.90
18721;DHT22;9489;50.948;3.114;2022-10-26T03:25:24;15.30;99.90
18721;DHT22;9489;50.948;3.114;2022-10-26T03:28:00;15.30;99.90
18721;DHT22;9489;50.948;3.114;2022-10-26T03:30:27;15.30;99.90
18721;DHT22;9489;50.948;3.114;2022-10-26T03:32:53;15.30;99.90
18721;DHT22;9489;50.948;3.114;2022-10-26T03:35:19;15.30;99.90
18721;DHT22;9489;50.948;3.114;2022-10-26T03:37:45;15.20;99.90
18721;DHT22;9489;50.948;3.114;2022-10-26T03:40:11;15.20;99.90
18721;DHT22;9489;50.948;3.114;2022-10-26T03:42:36;15.20;99.90
18721;DHT22;9489;50.948;3.114;2022-10-26T03:45:03;15.20;99.90
18721;DHT22;9489;50.948;3.114;2022-10-26T03:47:29;15.20;99.90
18721;DHT22;9489;50.948;3.114;2022-10-26T03:49:55;15.20;99.90
18721;DHT22;9489;50.948;3.114;2022-10-26T03:52:21;15.20;99.90
18721;DHT22;9489;50.948;3.114;2022-10-26T03:54:49;15.20;99.90
18721;DHT22;9489;50.948;3.114;2022-10-26T03:57:14;15.10;99.90
18721;DHT22;9489;50.948;3.114;2022-10-26T03:59:40;15.20;99.90
18721;DHT22;9489;50.948;3.114;2022-10-26T04:02:06;15.20;99.90
18721;DHT22;9489;50.948;3.114;2022-10-26T04:04:31;15.20;99.90
18721;DHT22;9489;50.948;3.114;2022-10-26T04:06:57;15.20;99.90
18721;DHT22;9489;50.948;3.114;2022-10-26T04:09:22;15.20;99.90
18721;DHT22;9489;50.948;3.114;2022-10-26T04:11:48;15.20;99.90
18721;DHT22;9489;50.948;3.114;2022-10-26T04:14:14;15.20;99.90
18721;DHT22;9489;50.948;3.114;2022-10-26T04:16:39;15.20;99.90
18721;DHT22;9489;50.948;3.114;2022-10-26T04:19:05;15.20;99.90
18721;DHT22;9489;50.948;3.114;2022-10-26T04:21:31;15.30;99.90
18721;DHT22;9489;50.948;3.114;2022-10-26T04:24:00;15.30;99.90
18721;DHT22;9489;50.948;3.114;2022-10-26T04:26:26;15.30;99.90
18721;DHT22;9489;50.948;3.114;2022-10-26T04:28:52;15.40;99.90
18721;DHT22;9489;50.948;3.114;2022-10-26T04:31:18;15.40;99.90
18721;DHT22;9489;50.948;3.114;2022-10-26T04:33:43;15.40;99.90
18721;DHT22;9489;50.948;3.114;2022-10-26T04:36:09;15.40;99.90
18721;DHT22;9489;50.948;3.114;2022-10-26T04:38:35;15.40;99.90
18721;DHT22;9489;50.948;3.114;2022-10-26T04:41:00;15.40;99.90
18721;DHT22;9489;50.948;3.114;2022-10-26T04:43:26;15.40;99.90
18721;DHT22;9489;50.948;3.114;2022-10-26T04:45:55;15.40;99.90
18721;DHT22;9489;50.948;3.114;2022-10-26T04:48:21;15.30;99.90
18721;DHT22;9489;50.948;3.114;2022-10-26T04:50:47;15.30;99.90
18721;DHT22;9489;50.948;3.114;2022-10-26T04:53:12;15.20;99.90
18721;DHT22;9489;50.948;3.114;2022-10-26T04:55:38;15.20;99.90
18721;DHT22;9489;50.948;3.114;2022-10-26T04:58:04;15.10;99.90
18721;DHT22;9489;50.948;3.114;2022-10-26T05:00:30;15.10;99.90
18721;DHT22;9489;50.948;3.114;2022-10-26T05:03:04;15.10;99.90
18721;DHT22;9489;50.948;3.114;2022-10-26T05:05:32;15.00;99.90
18721;DHT22;9489;50.948;3.114;2022-10-26T05:07:58;15.00;99.90
18721;DHT22;9489;50.948;3.114;2022-10-26T05:10:24;15.00;99.90
18721;DHT22;9489;50.948;3.114;2022-10-26T05:12:54;15.00;99.90
18721;DHT22;9489;50.948;3.114;2022-10-26T05:15:20;15.00;99.90
18721;DHT22;9489;50.948;3.114;2022-10-26T05:17:46;15.00;99.90
18721;DHT22;9489;50.948;3.114;2022-10-26T05:20:18;15.00;99.90
18721;DHT22;9489;50.948;3.114;2022-10-26T05:22:51;15.00;99.90
18721;DHT22;9489;50.948;3.114;2022-10-26T05:25:17;15.00;99.90
18721;DHT22;9489;50.948;3.114;2022-10-26T05:27:42;15.00;99.90
18721;DHT22;9489;50.948;3.114;2022-10-26T05:30:08;15.00;99.90
18721;DHT22;9489;50.948;3.114;2022-10-26T05:32:34;14.90;99.90
18721;DHT22;9489;50.948;3.114;2022-10-26T05:35:00;14.90;99.90
18721;DHT22;9489;50.948;3.114;2022-10-26T05:37:28;14.90;99.90
18721;DHT22;9489;50.948;3.114;2022-10-26T05:39:54;14.90;99.90
18721;DHT22;9489;50.948;3.114;2022-10-26T05:42:20;14.80;99.90
18721;DHT22;9489;50.948;3.114;2022-10-26T05:44:46;14.80;99.90
18721;DHT22;9489;50.948;3.114;2022-10-26T05:47:11;14.80;99.90
18721;DHT22;9489;50.948;3.114;2022-10-26T05:49:37;14.80;99.90
18721;DHT22;9489;50.948;3.114;2022-10-26T05:52:03;14.80;99.90
18721;DHT22;9489;50.948;3.114;2022-10-26T05:54:29;14.80;99.90
18721;DHT22;9489;50.948;3.114;2022-10-26T05:56:55;14.80;99.90
18721;DHT22;9489;50.948;3.114;2022-10-26T05:59:21;14.80;99.90
18721;DHT22;9489;50.948;3.114;2022-10-26T06:05:03;14.80;99.90
18721;DHT22;9489;50.948;3.114;2022-10-26T06:07:10;14.80;99.90
18721;DHT22;9489;50.948;3.114;2022-10-26T06:09:37;14.80;99.90
18721;DHT22;9489;50.948;3.114;2022-10-26T06:12:03;14.70;99.90
18721;DHT22;9489;50.948;3.114;2022-10-26T06:14:30;14.80;99.90
18721;DHT22;9489;50.948;3.114;2022-10-26T06:30:56;14.90;99.90
18721;DHT22;9489;50.948;3.114;2022-10-26T06:33:23;14.90;99.90
18721;DHT22;9489;50.948;3.114;2022-10-26T06:35:51;14.80;99.90
18721;DHT22;9489;50.948;3.114;2022-10-26T06:38:20;14.90;99.90
18721;DHT22;9489;50.948;3.114;2022-10-26T06:40:50;14.80;99.90
18721;DHT22;9489;50.948;3.114;2022-10-26T06:43:24;14.90;99.90
18721;DHT22;9489;50.948;3.114;2022-10-26T06:45:59;14.90;99.90
18721;DHT22;9489;50.948;3.114;2022-10-26T06:48:27;14.90;99.90
18721;DHT22;9489;50.948;3.114;2022-10-26T06:50:54;15.00;99.90
18721;DHT22;9489;50.948;3.114;2022-10-26T06:53:42;15.00;99.90
18721;DHT22;9489;50.948;3.114;2022-10-26T06:56:10;15.00;99.90
18721;DHT22;9489;50.948;3.114;2022-10-26T06:58:36;15.10;99.90
18721;DHT22;9489;50.948;3.114;2022-10-26T07:01:03;15.10;99.90
18721;DHT22;9489;50.948;3.114;2022-10-26T07:03:29;15.10;99.90
18721;DHT22;9489;50.948;3.114;2022-10-26T07:05:54;15.20;99.90
18721;DHT22;9489;50.948;3.114;2022-10-26T07:08:20;15.20;99.90
18721;DHT22;9489;50.948;3.114;2022-10-26T07:10:46;15.20;99.90
18721;DHT22;9489;50.948;3.114;2022-10-26T07:13:12;15.30;99.90
18721;DHT22;9489;50.948;3.114;2022-10-26T07:15:38;15.30;99.90
18721;DHT22;9489;50.948;3.114;2022-10-26T07:18:05;15.30;99.90
18721;DHT22;9489;50.948;3.114;2022-10-26T07:20:34;15.40;99.90
18721;DHT22;9489;50.948;3.114;2022-10-26T07:23:00;15.40;99.90
18721;DHT22;9489;50.948;3.114;2022-10-26T07:25:27;15.40;99.90
18721;DHT22;9489;50.948;3.114;2022-10-26T07:27:57;15.60;99.90
18721;DHT22;9489;50.948;3.114;2022-10-26T07:30:24;15.70;99.90
18721;DHT22;9489;50.948;3.114;2022-10-26T07:32:49;15.80;99.90
18721;DHT22;9489;50.948;3.114;2022-10-26T07:35:15;15.80;99.90
18721;DHT22;9489;50.948;3.114;2022-10-26T07:37:41;15.80;99.90
18721;DHT22;9489;50.948;3.114;2022-10-26T07:40:07;16.20;99.90
18721;DHT22;9489;50.948;3.114;2022-10-26T07:42:33;16.50;99.90
18721;DHT22;9489;50.948;3.114;2022-10-26T07:44:58;16.90;99.90
18721;DHT22;9489;50.948;3.114;2022-10-26T07:47:24;17.30;99.90
18721;DHT22;9489;50.948;3.114;2022-10-26T07:49:50;17.70;99.90
18721;DHT22;9489;50.948;3.114;2022-10-26T07:52:15;18.10;99.90
18721;DHT22;9489;50.948;3.114;2022-10-26T07:54:41;18.20;99.90
18721;DHT22;9489;50.948;3.114;2022-10-26T07:57:06;18.50;99.90
18721;DHT22;9489;50.948;3.114;2022-10-26T07:59:32;18.70;99.90
18721;DHT22;9489;50.948;3.114;2022-10-26T08:01:58;18.90;99.90
18721;DHT22;9489;50.948;3.114;2022-10-26T08:04:23;18.90;99.90
18721;DHT22;9489;50.948;3.114;2022-10-26T08:06:49;19.20;99.90
18721;DHT22;9489;50.948;3.114;2022-10-26T08:09:14;19.40;99.90
18721;DHT22;9489;50.948;3.114;2022-10-26T08:11:40;19.40;99.90
18721;DHT22;9489;50.948;3.114;2022-10-26T08:14:06;19.30;99.90
18721;DHT22;9489;50.948;3.114;2022-10-26T08:16:31;19.20;99.90
18721;DHT22;9489;50.948;3.114;2022-10-26T08:18:59;19.40;99.90
18721;DHT22;9489;50.948;3.114;2022-10-26T08:21:24;19.20;99.90
18721;DHT22;9489;50.948;3.114;2022-10-26T08:23:50;19.20;99.90
18721;DHT22;9489;50.948;3.114;2022-10-26T08:26:15;19.40;99.90
18721;DHT22;9489;50.948;3.114;2022-10-26T08:28:43;19.60;99.90
18721;DHT22;9489;50.948;3.114;2022-10-26T08:31:08;19.90;99.90
18721;DHT22;9489;50.948;3.114;2022-10-26T08:33:34;20.20;99.90
18721;DHT22;9489;50.948;3.114;2022-10-26T08:36:04;20.40;99.90
18721;DHT22;9489;50.948;3.114;2022-10-26T08:38:30;20.50;99.90
18721;DHT22;9489;50.948;3.114;2022-10-26T08:40:58;20.60;99.90
18721;DHT22;9489;50.948;3.114;2022-10-26T08:43:48;20.80;99.90
18721;DHT22;9489;50.948;3.114;2022-10-26T08:46:22;20.90;99.90
18721;DHT22;9489;50.948;3.114;2022-10-26T08:49:02;20.90;99.90
18721;DHT22;9489;50.948;3.114;2022-10-26T08:51:38;21.10;99.90
18721;DHT22;9489;50.948;3.114;2022-10-26T08:56:59;21.60;99.90
18721;DHT22;9489;50.948;3.114;2022-10-26T08:59:39;21.80;99.90
18721;DHT22;9489;50.948;3.114;2022-10-26T09:02:12;21.80;99.90
18721;DHT22;9489;50.948;3.114;2022-10-26T09:04:39;21.90;99.90
18721;DHT22;9489;50.948;3.114;2022-10-26T09:10:15;21.50;99.90
18721;DHT22;9489;50.948;3.114;2022-10-26T09:15:48;21.40;99.90
18721;DHT22;9489;50.948;3.114;2022-10-26T09:18:28;21.80;99.90
18721;DHT22;9489;50.948;3.114;2022-10-26T09:26:37;22.30;99.90
18721;DHT22;9489;50.948;3.114;2022-10-26T09:29:10;22.60;99.90
18721;DHT22;9489;50.948;3.114;2022-10-26T09:31:44;23.00;99.90
18721;DHT22;9489;50.948;3.114;2022-10-26T09:36:54;23.20;99.90
18721;DHT22;9489;50.948;3.114;2022-10-26T09:42:09;24.00;99.90
18721;DHT22;9489;50.948;3.114;2022-10-26T09:44:46;24.40;99.90
18721;DHT22;9489;50.948;3.114;2022-10-26T09:47:28;24.40;99.90
18721;DHT22;9489;50.948;3.114;2022-10-26T09:52:43;23.80;99.90
18721;DHT22;9489;50.948;3.114;2022-10-26T09:55:12;23.70;99.90
18721;DHT22;9489;50.948;3.114;2022-10-26T09:57:43;24.00;99.90
18721;DHT22;9489;50.948;3.114;2022-10-26T10:00:15;24.20;99.90
18721;DHT22;9489;50.948;3.114;2022-10-26T10:02:47;24.20;99.90
18721;DHT22;9489;50.948;3.114;2022-10-26T10:07:48;23.90;99.90
18721;DHT22;9489;50.948;3.114;2022-10-26T10:10:20;24.50;99.90
18721;DHT22;9489;50.948;3.114;2022-10-26T10:12:48;24.70;99.90
18721;DHT22;9489;50.948;3.114;2022-10-26T10:15:25;24.70;99.90
18721;DHT22;9489;50.948;3.114;2022-10-26T10:17:52;24.80;99.90
18721;DHT22;9489;50.948;3.114;2022-10-26T10:20:23;24.60;99.90
18721;DHT22;9489;50.948;3.114;2022-10-26T10:23:00;24.70;99.90
18721;DHT22;9489;50.948;3.114;2022-10-26T10:25:37;24.70;99.90
18721;DHT22;9489;50.948;3.114;2022-10-26T10:28:24;25.20;99.90
18721;DHT22;9489;50.948;3.114;2022-10-26T10:30:58;25.50;99.90
18721;DHT22;9489;50.948;3.114;2022-10-26T10:33:38;25.90;99.90
18721;DHT22;9489;50.948;3.114;2022-10-26T10:36:10;25.90;99.90
18721;DHT22;9489;50.948;3.114;2022-10-26T10:38:40;25.60;99.90
18721;DHT22;9489;50.948;3.114;2022-10-26T10:41:16;25.20;99.90
18721;DHT22;9489;50.948;3.114;2022-10-26T10:44:14;24.80;99.90
18721;DHT22;9489;50.948;3.114;2022-10-26T10:46:34;24.90;99.90
18721;DHT22;9489;50.948;3.114;2022-10-26T10:49:05;25.00;99.90
18721;DHT22;9489;50.948;3.114;2022-10-26T10:51:38;25.50;99.90
18721;DHT22;9489;50.948;3.114;2022-10-26T10:54:05;26.20;99.90
18721;DHT22;9489;50.948;3.114;2022-10-26T10:56:40;26.10;99.90
18721;DHT22;9489;50.948;3.114;2022-10-26T10:59:14;26.10;99.90
18721;DHT22;9489;50.948;3.114;2022-10-26T11:07:23;26.20;99.90
18721;DHT22;9489;50.948;3.114;2022-10-26T11:09:51;26.80;99.90
18721;DHT22;9489;50.948;3.114;2022-10-26T11:12:26;27.50;99.90
18721;DHT22;9489;50.948;3.114;2022-10-26T11:15:01;27.40;99.90
18721;DHT22;9489;50.948;3.114;2022-10-26T11:20:23;26.60;99.90
18721;DHT22;9489;50.948;3.114;2022-10-26T11:25:36;26.40;99.90
18721;DHT22;9489;50.948;3.114;2022-10-26T11:28:18;27.00;99.90
18721;DHT22;9489;50.948;3.114;2022-10-26T11:30:55;27.30;99.90
18721;DHT22;9489;50.948;3.114;2022-10-26T11:33:32;27.60;99.90
18721;DHT22;9489;50.948;3.114;2022-10-26T11:36:06;27.60;99.90
18721;DHT22;9489;50.948;3.114;2022-10-26T11:38:47;27.70;99.90
18721;DHT22;9489;50.948;3.114;2022-10-26T11:41:39;27.70;99.90
18721;DHT22;9489;50.948;3.114;2022-10-26T11:44:25;27.40;99.90
18721;DHT22;9489;50.948;3.114;2022-10-26T11:46:58;27.40;99.90
18721;DHT22;9489;50.948;3.114;2022-10-26T11:52:24;27.60;99.90
18721;DHT22;9489;50.948;3.114;2022-10-26T11:54:57;27.40;99.90
18721;DHT22;9489;50.948;3.114;2022-10-26T11:57:25;27.40;99.90
18721;DHT22;9489;50.948;3.114;2022-10-26T11:59:58;27.10;99.90
18721;DHT22;9489;50.948;3.114;2022-10-26T12:02:25;27.10;99.90
18721;DHT22;9489;50.948;3.114;2022-10-26T12:07:39;27.20;99.90
18721;DHT22;9489;50.948;3.114;2022-10-26T12:10:20;27.20;99.90
18721;DHT22;9489;50.948;3.114;2022-10-26T12:15:55;27.50;99.90
18721;DHT22;9489;50.948;3.114;2022-10-26T12:21:02;27.90;99.90
18721;DHT22;9489;50.948;3.114;2022-10-26T12:23:31;27.50;99.90
18721;DHT22;9489;50.948;3.114;2022-10-26T12:29:23;25.90;99.90
18721;DHT22;9489;50.948;3.114;2022-10-26T12:31:49;24.70;99.90
18721;DHT22;9489;50.948;3.114;2022-10-26T12:39:26;23.20;99.90
18721;DHT22;9489;50.948;3.114;2022-10-26T12:52:42;23.00;99.90
18721;DHT22;9489;50.948;3.114;2022-10-26T13:00:24;23.00;99.90
18721;DHT22;9489;50.948;3.114;2022-10-26T13:07:49;22.70;99.90
18721;DHT22;9489;50.948;3.114;2022-10-26T13:10:19;22.60;99.90
18721;DHT22;9489;50.948;3.114;2022-10-26T13:18:13;22.70;99.90
18721;DHT22;9489;50.948;3.114;2022-10-26T13:21:08;23.20;99.90
18721;DHT22;9489;50.948;3.114;2022-10-26T13:23:39;23.60;99.90
18721;DHT22;9489;50.948;3.114;2022-10-26T13:26:09;23.70;99.90
18721;DHT22;9489;50.948;3.114;2022-10-26T13:33:51;24.50;99.90
18721;DHT22;9489;50.948;3.114;2022-10-26T13:36:41;25.20;99.90
18721;DHT22;9489;50.948;3.114;2022-10-26T13:41:57;25.40;99.90
18721;DHT22;9489;50.948;3.114;2022-10-26T13:44:32;25.40;99.90
18721;DHT22;9489;50.948;3.114;2022-10-26T13:47:02;25.50;99.90
18721;DHT22;9489;50.948;3.114;2022-10-26T13:49:33;25.80;99.90
18721;DHT22;9489;50.948;3.114;2022-10-26T13:52:02;25.70;99.90
18721;DHT22;9489;50.948;3.114;2022-10-26T13:54:55;25.80;99.90
18721;DHT22;9489;50.948;3.114;2022-10-26T13:57:32;26.00;99.90
18721;DHT22;9489;50.948;3.114;2022-10-26T14:00:28;26.40;99.90
18721;DHT22;9489;50.948;3.114;2022-10-26T14:02:52;26.60;99.90
18721;DHT22;9489;50.948;3.114;2022-10-26T14:05:19;26.80;99.90
18721;DHT22;9489;50.948;3.114;2022-10-26T14:07:51;26.50;99.90
18721;DHT22;9489;50.948;3.114;2022-10-26T14:10:40;26.20;99.90
18721;DHT22;9489;50.948;3.114;2022-10-26T14:13:13;25.60;99.90
18721;DHT22;9489;50.948;3.114;2022-10-26T14:15:43;25.00;99.90
18721;DHT22;9489;50.948;3.114;2022-10-26T14:18:17;24.30;99.90
18721;DHT22;9489;50.948;3.114;2022-10-26T14:21:00;23.80;99.90
18721;DHT22;9489;50.948;3.114;2022-10-26T14:23:31;23.20;99.90
18721;DHT22;9489;50.948;3.114;2022-10-26T14:25:57;22.80;99.90
18721;DHT22;9489;50.948;3.114;2022-10-26T14:28:38;22.60;99.90
18721;DHT22;9489;50.948;3.114;2022-10-26T14:31:20;22.40;99.90
18721;DHT22;9489;50.948;3.114;2022-10-26T14:33:46;22.20;99.90
18721;DHT22;9489;50.948;3.114;2022-10-26T14:36:13;22.10;99.90
18721;DHT22;9489;50.948;3.114;2022-10-26T14:38:44;22.00;99.90
18721;DHT22;9489;50.948;3.114;2022-10-26T14:41:13;22.00;99.90
18721;DHT22;9489;50.948;3.114;2022-10-26T14:43:40;21.90;99.90
18721;DHT22;9489;50.948;3.114;2022-10-26T14:46:05;21.80;99.90
18721;DHT22;9489;50.948;3.114;2022-10-26T14:48:37;21.80;99.90
18721;DHT22;9489;50.948;3.114;2022-10-26T14:51:16;21.60;99.90
18721;DHT22;9489;50.948;3.114;2022-10-26T14:53:48;21.70;99.90
18721;DHT22;9489;50.948;3.114;2022-10-26T14:58:49;21.80;99.90
18721;DHT22;9489;50.948;3.114;2022-10-26T15:09:00;21.50;99.90
18721;DHT22;9489;50.948;3.114;2022-10-26T15:11:27;21.40;99.90
18721;DHT22;9489;50.948;3.114;2022-10-26T15:13:54;21.30;99.90
18721;DHT22;9489;50.948;3.114;2022-10-26T15:16:25;21.30;99.90
18721;DHT22;9489;50.948;3.114;2022-10-26T15:18:55;21.20;99.90
18721;DHT22;9489;50.948;3.114;2022-10-26T15:21:24;21.30;99.90
18721;DHT22;9489;50.948;3.114;2022-10-26T15:23:51;21.50;99.90
18721;DHT22;9489;50.948;3.114;2022-10-26T15:26:18;21.90;99.90
18721;DHT22;9489;50.948;3.114;2022-10-26T15:28:44;22.40;99.90
18721;DHT22;9489;50.948;3.114;2022-10-26T15:33:41;22.80;99.90
18721;DHT22;9489;50.948;3.114;2022-10-26T15:38:36;22.80;99.90
18721;DHT22;9489;50.948;3.114;2022-10-26T15:41:03;23.00;99.90
18721;DHT22;9489;50.948;3.114;2022-10-26T15:43:29;22.90;99.90
18721;DHT22;9489;50.948;3.114;2022-10-26T15:45:55;23.00;99.90
18721;DHT22;9489;50.948;3.114;2022-10-26T15:48:25;22.90;99.90
18721;DHT22;9489;50.948;3.114;2022-10-26T15:50:53;23.00;99.90
18721;DHT22;9489;50.948;3.114;2022-10-26T15:53:22;22.90;99.90
18721;DHT22;9489;50.948;3.114;2022-10-26T15:55:50;22.80;99.90
18721;DHT22;9489;50.948;3.114;2022-10-26T15:58:16;22.70;99.90
18721;DHT22;9489;50.948;3.114;2022-10-26T16:00:42;22.50;99.90
18721;DHT22;9489;50.948;3.114;2022-10-26T16:03:20;22.50;99.90
18721;DHT22;9489;50.948;3.114;2022-10-26T16:05:46;22.10;99.90
18721;DHT22;9489;50.948;3.114;2022-10-26T16:08:15;21.90;99.90
18721;DHT22;9489;50.948;3.114;2022-10-26T16:10:42;21.70;99.90
18721;DHT22;9489;50.948;3.114;2022-10-26T16:13:12;21.40;99.90
18721;DHT22;9489;50.948;3.114;2022-10-26T16:15:38;21.10;99.90
18721;DHT22;9489;50.948;3.114;2022-10-26T16:18:04;21.00;99.90
18721;DHT22;9489;50.948;3.114;2022-10-26T16:20:30;20.80;99.90
18721;DHT22;9489;50.948;3.114;2022-10-26T16:22:55;20.60;99.90
18721;DHT22;9489;50.948;3.114;2022-10-26T16:25:24;20.50;99.90
18721;DHT22;9489;50.948;3.114;2022-10-26T16:27:51;20.30;99.90
18721;DHT22;9489;50.948;3.114;2022-10-26T16:30:18;20.20;99.90
18721;DHT22;9489;50.948;3.114;2022-10-26T16:32:43;20.10;99.90
18721;DHT22;9489;50.948;3.114;2022-10-26T16:35:10;20.00;99.90
18721;DHT22;9489;50.948;3.114;2022-10-26T16:37:36;20.00;99.90
18721;DHT22;9489;50.948;3.114;2022-10-26T16:40:02;19.90;99.90
18721;DHT22;9489;50.948;3.114;2022-10-26T16:42:30;19.80;99.90
18721;DHT22;9489;50.948;3.114;2022-10-26T16:44:56;19.70;99.90
18721;DHT22;9489;50.948;3.114;2022-10-26T16:47:21;19.70;99.90
18721;DHT22;9489;50.948;3.114;2022-10-26T16:49:47;19.60;99.90
18721;DHT22;9489;50.948;3.114;2022-10-26T16:52:13;19.50;99.90
18721;DHT22;9489;50.948;3.114;2022-10-26T16:54:38;19.50;99.90
18721;DHT22;9489;50.948;3.114;2022-10-26T16:57:04;19.50;99.90
18721;DHT22;9489;50.948;3.114;2022-10-26T16:59:30;19.40;99.90
18721;DHT22;9489;50.948;3.114;2022-10-26T17:01:55;19.40;99.90
18721;DHT22;9489;50.948;3.114;2022-10-26T17:04:21;19.40;99.90
18721;DHT22;9489;50.948;3.114;2022-10-26T17:06:47;19.40;99.90
18721;DHT22;9489;50.948;3.114;2022-10-26T17:09:12;19.40;99.90
18721;DHT22;9489;50.948;3.114;2022-10-26T17:11:38;19.30;99.90
18721;DHT22;9489;50.948;3.114;2022-10-26T17:14:04;19.30;99.90
18721;DHT22;9489;50.948;3.114;2022-10-26T17:16:29;19.30;99.90
18721;DHT22;9489;50.948;3.114;2022-10-26T17:18:55;19.30;99.90
18721;DHT22;9489;50.948;3.114;2022-10-26T17:21:29;19.30;99.90
18721;DHT22;9489;50.948;3.114;2022-10-26T17:23:55;19.20;99.90
18721;DHT22;9489;50.948;3.114;2022-10-26T17:26:21;19.20;99.90
18721;DHT22;9489;50.948;3.114;2022-10-26T17:28:50;19.10;99.90
18721;DHT22;9489;50.948;3.114;2022-10-26T17:31:16;19.10;99.90
18721;DHT22;9489;50.948;3.114;2022-10-26T17:33:43;19.10;99.90
18721;DHT22;9489;50.948;3.114;2022-10-26T17:36:11;19.10;99.90
18721;DHT22;9489;50.948;3.114;2022-10-26T17:38:38;19.20;99.90
18721;DHT22;9489;50.948;3.114;2022-10-26T17:41:07;19.20;99.90
18721;DHT22;9489;50.948;3.114;2022-10-26T17:43:35;19.20;99.90
18721;DHT22;9489;50.948;3.114;2022-10-26T17:46:03;19.20;99.90
18721;DHT22;9489;50.948;3.114;2022-10-26T17:48:30;19.20;99.90
18721;DHT22;9489;50.948;3.114;2022-10-26T17:51:05;19.10;99.90
18721;DHT22;9489;50.948;3.114;2022-10-26T17:53:31;19.10;99.90
18721;DHT22;9489;50.948;3.114;2022-10-26T17:58:33;18.90;99.90
18721;DHT22;9489;50.948;3.114;2022-10-26T18:01:04;18.90;99.90
18721;DHT22;9489;50.948;3.114;2022-10-26T18:03:30;18.90;99.90
18721;DHT22;9489;50.948;3.114;2022-10-26T18:05:56;18.90;99.90
18721;DHT22;9489;50.948;3.114;2022-10-26T18:08:22;18.90;99.90
18721;DHT22;9489;50.948;3.114;2022-10-26T18:10:49;18.90;99.90
18721;DHT22;9489;50.948;3.114;2022-10-26T18:13:15;19.00;99.90
18721;DHT22;9489;50.948;3.114;2022-10-26T18:15:41;19.00;99.90
18721;DHT22;9489;50.948;3.114;2022-10-26T18:18:07;19.00;99.90
18721;DHT22;9489;50.948;3.114;2022-10-26T18:20:32;19.00;99.90
18721;DHT22;9489;50.948;3.114;2022-10-26T18:22:58;19.00;99.90
18721;DHT22;9489;50.948;3.114;2022-10-26T18:25:25;19.00;99.90
18721;DHT22;9489;50.948;3.114;2022-10-26T18:27:51;18.90;99.90
18721;DHT22;9489;50.948;3.114;2022-10-26T18:30:16;18.90;99.90
18721;DHT22;9489;50.948;3.114;2022-10-26T18:32:42;18.90;99.90
18721;DHT22;9489;50.948;3.114;2022-10-26T18:35:08;18.90;99.90
18721;DHT22;9489;50.948;3.114;2022-10-26T18:37:33;18.90;99.90